Hovedside
METAR-TAF:

METAR-TAF

Lufthavner :

Rabat, Marokko

breddegrad: 34-03N, lengdegrad: 006-46W, høyde over havet: 84 m

Gjeldene værobservasjon

Denne rapporten ble laget for 18 minutter siden, klokken 12:00 UTC
Vind 8 kt fra Sørvest
Temperatur 19°C
Luftfuktighet 60%
Trykk 1024 hPa
Sikt 10 km eller mer
ingen skyer under 1500 m og ingen bygeskyer

METAR: GMME 181200Z 23008KT CAVOK 19/11 Q1024 NOSIG

Tid: 12:18 (12:18 UTC)

Varsel

Denne rapporten ble laget for 7 timer og 18 minutter siden, klokken 05:00 UTC
Varsel gyldig fra 18. klokken 06 UTC til 19. klokken 12 UTC
Vind 3 kt fra Sør
Sikt: 8000 m
Midlertidig
fra 18. klokken 12 UTC til 18. klokken 18 UTC
Vind 8 kt fra Vest
Sikt 10 km eller mer
Spredte skyer i en høyde av 1500 ft
Spredte skyer i en høyde av 2000 ft

TAF: GMME 180500Z 1806/1912 18003KT 8000 NSC TEMPO 1812/1818 26008KT 9999 SCT015 SCT020

Værobservasjoner og værvarsel for over 4000 flyplasser (METAR- og TAF-rapporter).

Tilgjengelige stasjoner er representert av de røde og gule prikkene på kartet.

Hold musepekeren over prikken for å se navnet på stasjonen.

Klikk så for å se værobservasjoner og -varsler.

For å forandre kartet kan du klikke på den grønne knappen med svart kryss for å zoome inn, på den grønne knappen med strek for å zoome ut, eller på de grønne pilene for å se tilstøtende kart.


METAR-TAF: